createdAt,value
2023-02-28T00:01:14.382Z,5.01
2023-02-28T00:03:40.887Z,4.86
2023-02-28T00:06:08.575Z,5.19
2023-02-28T00:08:34.907Z,5.50
2023-02-28T00:11:03.780Z,4.87
2023-02-28T00:13:30.280Z,5.41
2023-02-28T00:16:08.082Z,5.50
2023-02-28T00:18:34.561Z,4.92
2023-02-28T00:21:00.970Z,5.27
2023-02-28T00:23:28.384Z,5.27
2023-02-28T00:25:55.282Z,5.33
2023-02-28T00:28:22.104Z,4.91
2023-02-28T00:30:48.570Z,4.76
2023-02-28T00:33:15.816Z,5.00
2023-02-28T00:35:42.280Z,4.53
2023-02-28T00:38:08.686Z,4.00
2023-02-28T00:40:35.087Z,4.12
2023-02-28T00:43:01.518Z,3.98
2023-02-28T00:45:28.018Z,4.05
2023-02-28T00:47:54.372Z,4.14
2023-02-28T00:50:21.230Z,4.56
2023-02-28T00:52:57.977Z,3.80
2023-02-28T00:55:24.342Z,3.26
2023-02-28T00:57:50.870Z,4.46
2023-02-28T01:00:18.108Z,4.12
2023-02-28T01:02:44.483Z,4.29
2023-02-28T01:05:10.862Z,4.45
2023-02-28T01:07:37.335Z,4.22
2023-02-28T01:10:03.990Z,4.58
2023-02-28T01:12:31.124Z,3.91
2023-02-28T01:14:58.055Z,4.38
2023-02-28T01:17:24.558Z,4.61
2023-02-28T01:19:55.053Z,4.80
2023-02-28T01:22:21.534Z,4.01
2023-02-28T01:24:55.654Z,4.31
2023-02-28T01:27:44.577Z,4.80
2023-02-28T01:30:11.509Z,4.42
2023-02-28T01:32:37.896Z,4.26
2023-02-28T01:35:04.570Z,4.51
2023-02-28T01:37:31.011Z,4.17
2023-02-28T01:39:57.465Z,3.99
2023-02-28T01:42:24.069Z,4.40
2023-02-28T01:45:01.526Z,4.72
2023-02-28T01:47:32.610Z,4.06
2023-02-28T01:50:01.779Z,4.71
2023-02-28T01:52:29.164Z,4.55
2023-02-28T01:55:00.168Z,3.69
2023-02-28T01:57:38.346Z,4.12
2023-02-28T02:00:10.185Z,3.97
2023-02-28T02:02:37.877Z,4.32
2023-02-28T02:05:12.980Z,3.42
2023-02-28T02:07:42.375Z,3.95
2023-02-28T02:10:12.626Z,4.06
2023-02-28T02:12:57.331Z,4.12
2023-02-28T02:15:31.911Z,4.54
2023-02-28T02:18:21.765Z,3.91
2023-02-28T02:21:22.271Z,4.56
2023-02-28T02:24:45.294Z,4.49
2023-02-28T02:30:41.339Z,4.39
2023-02-28T02:33:28.885Z,4.49
2023-02-28T02:36:17.469Z,4.43
2023-02-28T02:39:03.135Z,4.28
2023-02-28T02:41:52.601Z,4.58
2023-02-28T02:44:19.126Z,4.56
2023-02-28T02:46:46.997Z,3.86
2023-02-28T02:49:34.753Z,4.38
2023-02-28T02:52:08.431Z,4.40
2023-02-28T02:54:40.976Z,4.23
2023-02-28T02:57:33.554Z,3.94
2023-02-28T03:00:02.514Z,4.54
2023-02-28T03:02:34.866Z,4.19
2023-02-28T03:05:07.380Z,3.90
2023-02-28T03:07:33.836Z,3.79
2023-02-28T03:10:00.259Z,3.34
2023-02-28T03:12:42.546Z,4.30
2023-02-28T03:15:19.856Z,3.45
2023-02-28T03:18:01.587Z,3.97
2023-02-28T03:20:57.448Z,4.15
2023-02-28T03:23:50.486Z,3.33
2023-02-28T03:26:23.701Z,3.88
2023-02-28T03:28:56.245Z,4.03
2023-02-28T03:31:42.370Z,3.39
2023-02-28T03:34:18.083Z,3.00
2023-02-28T03:36:48.908Z,2.90
2023-02-28T03:39:21.258Z,2.76
2023-02-28T03:41:57.608Z,3.37
2023-02-28T03:44:34.954Z,3.12
2023-02-28T03:47:18.782Z,3.25
2023-02-28T03:49:55.163Z,2.19
2023-02-28T03:52:25.289Z,2.04
2023-02-28T03:55:03.583Z,2.67
2023-02-28T03:57:41.164Z,2.93
2023-02-28T04:00:20.271Z,3.22
2023-02-28T04:02:47.042Z,2.87
2023-02-28T04:05:13.512Z,2.86
2023-02-28T04:07:39.957Z,2.38
2023-02-28T04:10:07.336Z,2.45
2023-02-28T04:12:33.781Z,1.81
2023-02-28T04:15:00.211Z,2.04
2023-02-28T04:17:26.844Z,2.56
2023-02-28T04:19:57.895Z,2.96
2023-02-28T04:22:29.945Z,2.75
2023-02-28T04:25:02.154Z,2.91
2023-02-28T04:27:28.665Z,2.01
2023-02-28T04:29:55.065Z,2.51
2023-02-28T04:32:21.734Z,2.23
2023-02-28T04:34:48.310Z,2.84
2023-02-28T04:37:14.776Z,2.43
2023-02-28T04:42:22.540Z,3.32
2023-02-28T04:44:48.908Z,2.78
2023-02-28T04:47:16.713Z,3.50
2023-02-28T04:49:43.106Z,3.43
2023-02-28T04:52:11.071Z,2.92
2023-02-28T04:54:39.795Z,2.70
2023-02-28T04:57:08.754Z,2.44
2023-02-28T04:59:35.167Z,3.45
2023-02-28T05:02:08.033Z,2.97
2023-02-28T05:04:35.363Z,2.76
2023-02-28T05:07:02.629Z,2.16
2023-02-28T05:09:30.879Z,3.52
2023-02-28T05:11:57.734Z,2.84
2023-02-28T05:14:24.177Z,2.82
2023-02-28T05:16:50.614Z,3.05
2023-02-28T05:19:17.115Z,3.30
2023-02-28T05:21:57.265Z,3.37
2023-02-28T05:24:29.496Z,2.69
2023-02-28T05:26:56.423Z,2.68
2023-02-28T05:29:23.200Z,2.73
2023-02-28T05:31:54.688Z,3.41
2023-02-28T05:34:24.379Z,2.48
2023-02-28T05:36:50.778Z,3.10
2023-02-28T05:39:23.547Z,2.49
2023-02-28T05:41:49.984Z,3.29
2023-02-28T05:44:19.323Z,2.83
2023-02-28T05:46:45.784Z,2.11
2023-02-28T05:49:12.294Z,2.82
2023-02-28T05:51:40.769Z,2.68
2023-02-28T05:54:08.081Z,2.46
2023-02-28T05:56:40.038Z,3.15
2023-02-28T05:59:07.300Z,1.92
2023-02-28T06:01:41.256Z,2.67
2023-02-28T06:04:14.310Z,3.40
2023-02-28T06:06:47.156Z,2.29
2023-02-28T06:09:14.231Z,2.45
2023-02-28T06:11:41.049Z,2.19
2023-02-28T06:14:07.667Z,2.10
2023-02-28T06:16:35.982Z,2.44
2023-02-28T06:19:05.027Z,3.24
2023-02-28T06:21:31.842Z,2.81
2023-02-28T06:24:01.765Z,3.02
2023-02-28T06:26:28.204Z,2.19
2023-02-28T06:28:55.686Z,2.75
2023-02-28T06:31:25.068Z,2.19
2023-02-28T06:33:57.446Z,2.73
2023-02-28T06:36:23.929Z,1.29
2023-02-28T06:38:57.659Z,1.57
2023-02-28T06:41:28.445Z,1.59
2023-02-28T06:43:55.271Z,2.48
2023-02-28T06:46:22.547Z,2.41
2023-02-28T06:48:49.027Z,1.88
2023-02-28T06:51:25.188Z,3.12
2023-02-28T06:53:52.124Z,3.36
2023-02-28T06:56:19.533Z,2.70
2023-02-28T06:58:55.875Z,3.45
2023-02-28T07:01:24.535Z,3.35
2023-02-28T07:03:53.268Z,3.21
2023-02-28T07:06:21.070Z,3.02
2023-02-28T07:08:47.482Z,3.00
2023-02-28T07:11:28.861Z,2.88
2023-02-28T07:13:58.933Z,2.87
2023-02-28T07:16:26.802Z,2.76
2023-02-28T07:18:54.462Z,3.65
2023-02-28T07:21:21.542Z,2.66
2023-02-28T07:23:54.286Z,2.84
2023-02-28T07:26:23.538Z,3.82
2023-02-28T07:28:50.557Z,3.35
2023-02-28T07:31:18.243Z,3.59
2023-02-28T07:33:44.905Z,2.87
2023-02-28T07:36:16.212Z,3.80
2023-02-28T07:38:46.322Z,3.89
2023-02-28T07:41:14.617Z,4.11
2023-02-28T07:43:41.042Z,3.74
2023-02-28T07:46:10.281Z,4.02
2023-02-28T07:48:36.794Z,3.68
2023-02-28T07:51:03.667Z,4.08
2023-02-28T07:53:30.597Z,3.60
2023-02-28T07:55:58.756Z,4.32
2023-02-28T07:58:26.203Z,4.00
2023-02-28T08:01:13.850Z,4.35
2023-02-28T08:03:40.774Z,4.37
2023-02-28T08:06:08.936Z,4.39
2023-02-28T08:08:35.362Z,4.01
2023-02-28T08:11:03.360Z,4.53
2023-02-28T08:13:30.857Z,4.65
2023-02-28T08:15:57.693Z,4.66
2023-02-28T08:18:24.588Z,4.66
2023-02-28T08:20:51.119Z,4.29
2023-02-28T08:23:17.529Z,4.00
2023-02-28T08:25:43.965Z,3.95
2023-02-28T08:28:10.401Z,4.86
2023-02-28T08:30:36.750Z,4.28
2023-02-28T08:33:03.312Z,4.27
2023-02-28T08:35:29.838Z,5.03
2023-02-28T08:37:56.243Z,4.41
2023-02-28T08:40:22.910Z,4.49
2023-02-28T08:42:50.448Z,3.85
2023-02-28T08:45:17.059Z,4.69
2023-02-28T08:47:43.477Z,5.19
2023-02-28T08:50:10.552Z,5.23
2023-02-28T08:52:37.032Z,5.43
2023-02-28T08:55:03.626Z,5.06
2023-02-28T08:57:30.103Z,4.04
2023-02-28T08:59:56.553Z,5.36
2023-02-28T09:02:23.209Z,5.04
2023-02-28T09:04:49.574Z,5.02
2023-02-28T09:07:16.599Z,5.62
2023-02-28T09:09:54.507Z,5.64
2023-02-28T09:12:28.297Z,6.14
2023-02-28T09:14:55.045Z,5.99
2023-02-28T09:17:21.474Z,5.51
2023-02-28T09:19:52.894Z,5.47
2023-02-28T09:22:19.336Z,5.92
2023-02-28T09:24:45.757Z,5.86
2023-02-28T09:27:12.319Z,6.24
2023-02-28T09:29:38.681Z,5.47
2023-02-28T09:32:06.633Z,5.83
2023-02-28T09:34:41.454Z,5.93
2023-02-28T09:37:08.004Z,6.42
2023-02-28T09:39:34.450Z,6.70
2023-02-28T09:42:02.880Z,6.89
2023-02-28T09:44:34.308Z,7.06
2023-02-28T09:47:08.665Z,6.78
2023-02-28T09:49:42.006Z,7.14
2023-02-28T09:52:29.857Z,7.04
2023-02-28T09:54:56.214Z,7.02
2023-02-28T09:57:32.761Z,7.39
2023-02-28T10:00:11.130Z,7.43
2023-02-28T10:03:07.567Z,7.44
2023-02-28T10:05:36.965Z,7.58
2023-02-28T10:08:26.140Z,6.94
2023-02-28T10:10:58.073Z,6.94
2023-02-28T10:13:51.309Z,7.94
2023-02-28T10:16:23.664Z,8.00
2023-02-28T10:18:57.518Z,8.29
2023-02-28T10:21:34.559Z,8.16
2023-02-28T10:24:17.358Z,8.23
2023-02-28T10:26:46.061Z,8.20
2023-02-28T10:29:12.698Z,7.90
2023-02-28T10:31:39.635Z,8.60
2023-02-28T10:34:07.171Z,8.52
2023-02-28T10:36:35.912Z,8.19
2023-02-28T10:39:02.600Z,8.83
2023-02-28T10:41:35.643Z,9.10
2023-02-28T10:44:24.415Z,10.47
2023-02-28T10:46:51.995Z,12.01
2023-02-28T10:49:32.035Z,13.05
2023-02-28T10:52:13.160Z,12.94
2023-02-28T10:54:39.731Z,12.19
2023-02-28T10:57:10.198Z,12.48
2023-02-28T10:59:37.190Z,13.47
2023-02-28T11:02:30.595Z,15.07
2023-02-28T11:04:57.015Z,15.25
2023-02-28T11:07:27.803Z,15.46
2023-02-28T11:09:59.297Z,14.47
2023-02-28T11:12:50.791Z,15.89
2023-02-28T11:18:41.797Z,14.61
2023-02-28T11:21:10.141Z,14.42
2023-02-28T11:23:41.454Z,12.86
2023-02-28T11:26:11.812Z,13.07
2023-02-28T11:28:40.758Z,13.57
2023-02-28T11:31:14.623Z,15.16
2023-02-28T11:33:46.576Z,14.73
2023-02-28T11:36:23.758Z,14.85
2023-02-28T11:38:53.209Z,14.74
2023-02-28T11:41:40.881Z,15.17
2023-02-28T11:44:38.529Z,15.03
2023-02-28T11:47:18.559Z,15.20
2023-02-28T11:50:03.124Z,15.49
2023-02-28T11:52:51.910Z,15.87
2023-02-28T11:55:39.081Z,16.28
2023-02-28T11:58:34.867Z,16.20
2023-02-28T12:01:01.312Z,16.42
2023-02-28T12:03:51.832Z,15.06
2023-02-28T12:06:39.481Z,14.37
2023-02-28T12:09:24.653Z,13.90
2023-02-28T12:12:19.520Z,13.92
2023-02-28T12:15:15.621Z,14.28
2023-02-28T12:17:56.693Z,13.59
2023-02-28T12:20:57.814Z,12.64
2023-02-28T12:23:36.359Z,11.78
2023-02-28T12:26:15.133Z,11.62
2023-02-28T12:28:47.370Z,11.62
2023-02-28T12:31:22.871Z,11.00
2023-02-28T12:33:54.373Z,10.44
2023-02-28T12:36:27.118Z,10.43
2023-02-28T12:39:01.199Z,11.51
2023-02-28T12:41:48.754Z,13.22
2023-02-28T12:44:33.560Z,13.10
2023-02-28T12:47:03.057Z,12.67
2023-02-28T12:49:34.800Z,12.33
2023-02-28T12:52:03.998Z,11.69
2023-02-28T12:54:45.065Z,11.22
2023-02-28T12:57:34.605Z,11.51
2023-02-28T13:00:06.000Z,12.88
2023-02-28T13:02:51.216Z,13.94
2023-02-28T13:05:54.657Z,14.39
2023-02-28T13:08:42.519Z,14.17
2023-02-28T13:11:25.159Z,14.11
2023-02-28T13:13:59.443Z,14.40
2023-02-28T13:16:25.859Z,14.37
2023-02-28T13:18:53.604Z,13.90
2023-02-28T13:21:29.748Z,13.79
2023-02-28T13:23:59.474Z,14.48
2023-02-28T13:26:31.899Z,14.60
2023-02-28T13:29:23.754Z,13.99
2023-02-28T13:32:10.385Z,14.82
2023-02-28T13:34:40.212Z,14.59
2023-02-28T13:37:18.817Z,14.22
2023-02-28T13:39:51.076Z,13.98
2023-02-28T13:42:23.738Z,14.48
2023-02-28T13:45:05.294Z,13.86
2023-02-28T13:47:44.062Z,14.78
2023-02-28T13:50:31.901Z,14.79
2023-02-28T13:53:15.907Z,14.78
2023-02-28T13:56:18.541Z,15.38
2023-02-28T13:59:06.250Z,14.65
2023-02-28T14:01:52.544Z,13.72
2023-02-28T14:04:44.236Z,13.25
2023-02-28T14:07:19.313Z,12.21
2023-02-28T14:10:06.263Z,11.73
2023-02-28T14:13:09.736Z,12.18
2023-02-28T14:15:39.187Z,12.22
2023-02-28T14:18:29.261Z,12.41
2023-02-28T14:21:27.960Z,13.47
2023-02-28T14:24:22.268Z,13.93
2023-02-28T14:27:11.727Z,13.52
2023-02-28T14:30:15.305Z,14.12
2023-02-28T14:32:44.669Z,13.63
2023-02-28T14:35:44.750Z,13.54
2023-02-28T14:38:28.849Z,13.62
2023-02-28T14:40:58.172Z,13.32
2023-02-28T14:43:27.772Z,12.83
2023-02-28T14:45:58.641Z,12.57
2023-02-28T14:48:26.775Z,12.11
2023-02-28T14:51:01.139Z,12.35
2023-02-28T14:53:35.739Z,11.58
2023-02-28T14:56:02.278Z,11.64
2023-02-28T14:58:31.318Z,11.94
2023-02-28T15:01:00.179Z,12.20
2023-02-28T15:03:33.666Z,11.78
2023-02-28T15:06:06.179Z,11.95
2023-02-28T15:08:36.745Z,11.27
2023-02-28T15:11:07.187Z,11.34
2023-02-28T15:13:42.736Z,11.76
2023-02-28T15:16:13.782Z,11.55
2023-02-28T15:18:43.101Z,11.87
2023-02-28T15:21:24.605Z,11.79
2023-02-28T15:23:55.732Z,11.16
2023-02-28T15:26:28.101Z,10.28
2023-02-28T15:29:13.041Z,10.61
2023-02-28T15:31:58.448Z,10.63
2023-02-28T15:34:43.534Z,10.89
2023-02-28T15:37:38.268Z,11.27
2023-02-28T15:40:41.522Z,11.43
2023-02-28T15:43:17.889Z,10.99
2023-02-28T15:45:53.840Z,11.00
2023-02-28T15:48:27.903Z,11.64
2023-02-28T15:51:01.938Z,11.62
2023-02-28T15:53:36.767Z,11.15
2023-02-28T15:56:07.519Z,11.71
2023-02-28T15:58:37.659Z,11.32
2023-02-28T16:01:27.380Z,11.46
2023-02-28T16:03:56.444Z,11.33
2023-02-28T16:06:31.840Z,11.01
2023-02-28T16:08:58.261Z,10.56
2023-02-28T16:11:24.645Z,11.35
2023-02-28T16:13:52.482Z,10.86
2023-02-28T16:16:25.416Z,11.36
2023-02-28T16:18:51.952Z,11.00
2023-02-28T16:21:18.440Z,10.93
2023-02-28T16:23:44.821Z,10.45
2023-02-28T16:26:20.672Z,11.05
2023-02-28T16:28:47.171Z,11.40
2023-02-28T16:31:17.204Z,10.99
2023-02-28T16:33:45.760Z,10.79
2023-02-28T16:36:17.643Z,11.00
2023-02-28T16:38:44.468Z,10.35
2023-02-28T16:41:18.118Z,10.56
2023-02-28T16:43:45.251Z,10.53
2023-02-28T16:46:13.576Z,10.34
2023-02-28T16:48:41.449Z,9.62
2023-02-28T16:51:13.760Z,10.25
2023-02-28T16:53:40.570Z,10.09
2023-02-28T16:56:10.560Z,9.55
2023-02-28T16:58:37.000Z,9.45
2023-02-28T17:01:04.689Z,10.12
2023-02-28T17:03:33.455Z,9.96
2023-02-28T17:06:01.099Z,9.93
2023-02-28T17:08:29.622Z,9.18
2023-02-28T17:10:56.276Z,9.66
2023-02-28T17:13:22.641Z,9.70
2023-02-28T17:15:49.108Z,8.97
2023-02-28T17:18:19.724Z,9.95
2023-02-28T17:20:47.181Z,9.62
2023-02-28T17:23:13.631Z,8.81
2023-02-28T17:25:39.956Z,9.41
2023-02-28T17:28:06.356Z,9.34
2023-02-28T17:30:35.726Z,9.48
2023-02-28T17:33:02.470Z,9.46
2023-02-28T17:35:29.264Z,9.40
2023-02-28T17:37:55.808Z,9.18
2023-02-28T17:40:29.247Z,8.99
2023-02-28T17:43:03.479Z,9.03
2023-02-28T17:45:40.556Z,8.22
2023-02-28T17:48:17.897Z,8.81
2023-02-28T17:50:44.983Z,8.66
2023-02-28T17:53:18.857Z,8.85
2023-02-28T17:55:54.606Z,8.63
2023-02-28T17:58:29.260Z,8.38
2023-02-28T18:00:56.109Z,8.82
2023-02-28T18:03:22.788Z,8.25
2023-02-28T18:05:50.026Z,8.49
2023-02-28T18:08:17.192Z,8.82
2023-02-28T18:10:43.521Z,8.19
2023-02-28T18:13:13.379Z,8.68
2023-02-28T18:15:40.495Z,8.49
2023-02-28T18:18:07.620Z,8.52
2023-02-28T18:20:35.406Z,8.44
2023-02-28T18:23:02.166Z,7.93
2023-02-28T18:25:28.521Z,8.37
2023-02-28T18:27:58.377Z,8.39
2023-02-28T18:30:30.142Z,8.34
2023-02-28T18:32:56.677Z,7.53
2023-02-28T18:35:35.989Z,7.83
2023-02-28T18:38:15.750Z,8.25
2023-02-28T18:40:43.389Z,8.50
2023-02-28T18:43:09.948Z,7.57
2023-02-28T18:45:39.385Z,8.27
2023-02-28T18:48:07.151Z,8.32
2023-02-28T18:50:34.452Z,8.30
2023-02-28T18:53:03.355Z,7.79
2023-02-28T18:55:32.298Z,8.37
2023-02-28T18:58:00.774Z,8.01
2023-02-28T19:00:27.396Z,8.17
2023-02-28T19:02:56.289Z,7.22
2023-02-28T19:05:23.046Z,7.87
2023-02-28T19:07:49.591Z,7.81
2023-02-28T19:10:17.975Z,7.50
2023-02-28T19:12:47.244Z,8.13
2023-02-28T19:15:17.325Z,7.51
2023-02-28T19:17:46.509Z,6.51
2023-02-28T19:20:23.001Z,6.67
2023-02-28T19:23:00.581Z,6.34
2023-02-28T19:25:28.534Z,6.69
2023-02-28T19:28:00.184Z,7.95
2023-02-28T19:30:26.664Z,7.35
2023-02-28T19:32:53.505Z,7.28
2023-02-28T19:35:27.581Z,6.91
2023-02-28T19:37:57.901Z,6.55
2023-02-28T19:40:25.505Z,6.59
2023-02-28T19:42:52.175Z,6.86
2023-02-28T19:45:27.333Z,6.48
2023-02-28T19:47:59.163Z,6.59
2023-02-28T19:50:27.350Z,7.51
2023-02-28T19:52:53.976Z,6.34
2023-02-28T19:55:27.118Z,7.14
2023-02-28T19:57:53.643Z,6.14
2023-02-28T20:00:20.208Z,6.27
2023-02-28T20:02:47.824Z,5.71
2023-02-28T20:05:14.277Z,6.47
2023-02-28T20:07:40.793Z,6.02
2023-02-28T20:10:07.891Z,6.62
2023-02-28T20:12:34.649Z,6.25
2023-02-28T20:15:01.344Z,6.22
2023-02-28T20:17:28.891Z,6.67
2023-02-28T20:19:55.382Z,6.46
2023-02-28T20:22:24.305Z,6.68
2023-02-28T20:24:50.784Z,6.62
2023-02-28T20:27:17.378Z,6.64
2023-02-28T20:29:43.808Z,6.10
2023-02-28T20:32:10.380Z,5.84
2023-02-28T20:34:37.175Z,6.68
2023-02-28T20:37:03.629Z,6.23
2023-02-28T20:39:30.290Z,6.87
2023-02-28T20:41:56.740Z,5.91
2023-02-28T20:44:23.541Z,6.13
2023-02-28T20:46:51.118Z,5.83
2023-02-28T20:49:17.611Z,5.76
2023-02-28T20:51:44.226Z,6.48
2023-02-28T20:54:16.099Z,5.26
2023-02-28T20:56:44.867Z,6.14
2023-02-28T20:59:12.359Z,4.84
2023-02-28T21:01:40.605Z,6.05
2023-02-28T21:04:07.999Z,5.98
2023-02-28T21:06:38.694Z,5.08
2023-02-28T21:09:07.417Z,5.78
2023-02-28T21:11:36.798Z,5.37
2023-02-28T21:14:09.645Z,5.95
2023-02-28T21:16:37.922Z,5.66
2023-02-28T21:19:05.354Z,5.67
2023-02-28T21:21:44.067Z,6.31
2023-02-28T21:24:12.469Z,5.24
2023-02-28T21:26:44.467Z,5.77
2023-02-28T21:29:13.972Z,5.39
2023-02-28T21:31:46.962Z,4.94
2023-02-28T21:34:16.449Z,5.19
2023-02-28T21:36:47.418Z,5.45
2023-02-28T21:39:29.616Z,5.52
2023-02-28T21:42:07.317Z,5.41
2023-02-28T21:44:36.819Z,4.85
2023-02-28T21:47:03.495Z,4.29
2023-02-28T21:49:30.346Z,4.92
2023-02-28T21:51:59.205Z,4.53
2023-02-28T21:54:36.992Z,4.91
2023-02-28T21:57:17.019Z,5.51
2023-02-28T21:59:43.874Z,4.54
2023-02-28T22:02:11.748Z,4.80
2023-02-28T22:04:38.362Z,4.65
2023-02-28T22:07:05.383Z,5.97
2023-02-28T22:09:32.265Z,5.26
2023-02-28T22:11:58.886Z,5.08
2023-02-28T22:14:25.327Z,5.72
2023-02-28T22:16:54.478Z,5.76
2023-02-28T22:19:22.464Z,6.17
2023-02-28T22:21:51.434Z,5.43
2023-02-28T22:24:20.641Z,5.30
2023-02-28T22:26:48.949Z,5.27
2023-02-28T22:29:17.803Z,5.56
2023-02-28T22:31:44.354Z,5.93
2023-02-28T22:34:12.030Z,5.16
2023-02-28T22:36:41.479Z,4.84
2023-02-28T22:39:08.633Z,5.83
2023-02-28T22:41:35.166Z,5.34
2023-02-28T22:44:03.607Z,5.37
2023-02-28T22:46:34.796Z,4.29
2023-02-28T22:49:03.330Z,5.69
2023-02-28T22:51:29.859Z,5.24
2023-02-28T22:53:58.144Z,5.46
2023-02-28T22:56:27.770Z,4.58
2023-02-28T22:58:59.437Z,6.03
2023-02-28T23:01:29.256Z,5.31
2023-02-28T23:03:56.219Z,5.67
2023-02-28T23:06:28.669Z,4.93
2023-02-28T23:08:58.511Z,5.23
2023-02-28T23:11:27.776Z,5.26
2023-02-28T23:14:00.125Z,5.59
2023-02-28T23:16:38.617Z,4.85
2023-02-28T23:19:09.006Z,5.62
2023-02-28T23:21:35.824Z,4.33
2023-02-28T23:24:04.875Z,5.64
2023-02-28T23:26:32.828Z,4.34
2023-02-28T23:28:59.566Z,4.72
2023-02-28T23:31:26.081Z,5.12
2023-02-28T23:33:52.671Z,5.75
2023-02-28T23:36:19.265Z,5.44
2023-02-28T23:38:48.560Z,5.58
2023-02-28T23:41:16.612Z,5.14
2023-02-28T23:43:43.864Z,5.32
2023-02-28T23:46:11.720Z,4.10
2023-02-28T23:48:39.182Z,5.52
2023-02-28T23:51:10.965Z,5.46
2023-02-28T23:53:39.568Z,3.90
2023-02-28T23:56:07.721Z,5.06
2023-02-28T23:58:34.359Z,4.21
